| time (UTC) | temp F | wind direction | speed MPH | gust MPH | rain 1hr in | rain 24hr in | rain mn in | humidity % | barometer mb |
| 20260510051555 | 56 | 289 | 4.0 | 15.0 | 0.01 | 0.29 | 0.01 | 90 | 1011.0 |
| 20260510050517 | 55 | 0.0 | 0.0 | 0.00 | 0.28 | 0.00 | 90 | 1009.7 | |
| 20260510045517 | 55 | 0.0 | 0.0 | 0.00 | 0.28 | 0.00 | 90 | 1009.6 | |
| 20260510044516 | 56 | 0.0 | 0.0 | 0.00 | 0.28 | 0.00 | 90 | 1009.6 | |
| 20260510043537 | 56 | 0.0 | 0.0 | 0.00 | 0.29 | 0.00 | 90 | 1009.5 | |
| 20260510042517 | 57 | 0.0 | 1.0 | 0.01 | 0.29 | 0.00 | 90 | 1009.6 | |
| 20260510041516 | 57 | 22 | 0.0 | 1.0 | 0.01 | 0.29 | 0.00 | 90 | 1009.7 |
| 20260510040517 | 57 | 351 | 0.0 | 3.0 | 0.02 | 0.29 | 0.00 | 90 | 1009.6 |
| 20260510035537 | 57 | 190 | 0.0 | 2.0 | 0.02 | 0.29 | 0.29 | 90 | 1009.4 |
| 20260510034516 | 57 | 259 | 1.0 | 2.0 | 0.02 | 0.29 | 0.29 | 90 | 1009.6 |
| 20260510033516 | 57 | 105 | 0.0 | 1.0 | 0.02 | 0.29 | 0.29 | 90 | 1009.0 |
| 20260510032517 | 57 | 0.0 | 0.0 | 0.01 | 0.28 | 0.28 | 90 | 1009.2 | |
| 20260510031516 | 57 | 0.0 | 1.0 | 0.01 | 0.28 | 0.28 | 90 | 1009.0 | |
| 20260510030516 | 57 | 1 | 1.0 | 2.0 | 0.00 | 0.27 | 0.27 | 89 | 1008.8 |
| 20260510025516 | 57 | 108 | 0.0 | 1.0 | 0.00 | 0.27 | 0.27 | 89 | 1008.8 |
| 20260510024516 | 57 | 86 | 1.0 | 3.0 | 0.00 | 0.27 | 0.27 | 89 | 1009.0 |
| 20260510023516 | 57 | 0.0 | 2.0 | 0.00 | 0.27 | 0.27 | 89 | 1009.0 | |
| 20260510022517 | 57 | 0.0 | 2.0 | 0.04 | 0.27 | 0.27 | 89 | 1009.0 | |
| 20260510021516 | 57 | 0.0 | 0.0 | 0.10 | 0.27 | 0.27 | 88 | 1009.0 | |
| 20260510020516 | 58 | 0.0 | 0.0 | 0.19 | 0.27 | 0.27 | 88 | 1009.2 | |
| 20260510015536 | 58 | 0.0 | 0.0 | 0.19 | 0.27 | 0.27 | 87 | 1009.3 | |
| 20260510014517 | 58 | 91 | 0.0 | 2.0 | 0.19 | 0.27 | 0.27 | 86 | 1009.1 |
| 20260510013516 | 59 | 303 | 0.0 | 5.0 | 0.19 | 0.27 | 0.27 | 85 | 1008.9 |
| 20260510012516 | 61 | 280 | 4.0 | 8.0 | 0.15 | 0.23 | 0.23 | 81 | 1009.2 |
| 20260510011536 | 64 | 274 | 3.0 | 8.0 | 0.09 | 0.17 | 0.17 | 71 | 1008.9 |
| 20260510010536 | 67 | 281 | 3.0 | 11.0 | 0.00 | 0.08 | 0.08 | 61 | 1008.2 |
| 20260510005517 | 67 | 90 | 1.0 | 7.0 | 0.00 | 0.08 | 0.08 | 58 | 1006.8 |
| 20260510004536 | 67 | 144 | 1.0 | 5.0 | 0.00 | 0.09 | 0.08 | 58 | 1006.7 |
| 20260510003557 | 67 | 243 | 2.0 | 6.0 | 0.00 | 0.09 | 0.08 | 58 | 1006.8 |
| 20260510002536 | 68 | 226 | 2.0 | 7.0 | 0.00 | 0.09 | 0.08 | 57 | 1007.0 |
| 20260510001516 | 68 | 176 | 2.0 | 5.0 | 0.00 | 0.09 | 0.08 | 57 | 1006.9 |
| 20260510000537 | 68 | 228 | 3.0 | 8.0 | 0.00 | 0.09 | 0.08 | 56 | 1006.9 |
| 20260509235516 | 69 | 193 | 3.0 | 9.0 | 0.00 | 0.09 | 0.08 | 55 | 1006.8 |
| 20260509234516 | 70 | 244 | 2.0 | 8.0 | 0.00 | 0.09 | 0.08 | 54 | 1006.7 |
| 20260509233516 | 69 | 209 | 3.0 | 13.0 | 0.00 | 0.09 | 0.08 | 54 | 1006.6 |
| 20260509232536 | 70 | 229 | 3.0 | 14.0 | 0.00 | 0.09 | 0.08 | 54 | 1006.6 |
| 20260509231516 | 70 | 242 | 4.0 | 12.0 | 0.00 | 0.09 | 0.08 | 54 | 1006.5 |
| 20260509230516 | 70 | 229 | 3.0 | 12.0 | 0.00 | 0.09 | 0.08 | 54 | 1006.4 |
| 20260509225516 | 70 | 247 | 3.0 | 13.0 | 0.00 | 0.09 | 0.08 | 54 | 1006.5 |
| 20260509224516 | 70 | 221 | 2.0 | 13.0 | 0.00 | 0.09 | 0.08 | 54 | 1006.6 |
| 20260509223516 | 70 | 114 | 2.0 | 13.0 | 0.00 | 0.09 | 0.08 | 54 | 1006.7 |
| 20260509222516 | 70 | 232 | 5.0 | 15.0 | 0.00 | 0.09 | 0.08 | 53 | 1006.7 |
| 20260509221516 | 70 | 222 | 4.0 | 12.0 | 0.00 | 0.09 | 0.08 | 53 | 1006.7 |
| 20260509220516 | 71 | 246 | 4.0 | 11.0 | 0.00 | 0.09 | 0.08 | 53 | 1006.8 |
| 20260509215516 | 71 | 111 | 4.0 | 11.0 | 0.00 | 0.09 | 0.08 | 53 | 1006.8 |
| 20260509214516 | 71 | 169 | 4.0 | 10.0 | 0.00 | 0.09 | 0.08 | 53 | 1006.8 |
| 20260509213516 | 72 | 259 | 2.0 | 8.0 | 0.00 | 0.09 | 0.08 | 53 | 1006.9 |
| 20260509212515 | 71 | 259 | 2.0 | 13.0 | 0.00 | 0.09 | 0.08 | 54 | 1007.0 |
| 20260509211557 | 71 | 242 | 4.0 | 12.0 | 0.00 | 0.09 | 0.08 | 53 | 1007.2 |
| 20260509210516 | 71 | 239 | 4.0 | 11.0 | 0.00 | 0.09 | 0.08 | 54 | 1007.2 |
| 20260509205515 | 71 | 243 | 4.0 | 10.0 | 0.00 | 0.09 | 0.08 | 53 | 1007.1 |
| 20260509204516 | 70 | 130 | 4.0 | 13.0 | 0.00 | 0.09 | 0.08 | 55 | 1007.2 |
| 20260509203516 | 70 | 249 | 3.0 | 9.0 | 0.00 | 0.09 | 0.08 | 56 | 1007.4 |
| 20260509202516 | 70 | 247 | 4.0 | 12.0 | 0.00 | 0.09 | 0.08 | 56 | 1007.3 |
| 20260509201517 | 70 | 257 | 4.0 | 8.0 | 0.00 | 0.09 | 0.08 | 56 | 1007.5 |
| 20260509200515 | 70 | 253 | 4.0 | 11.0 | 0.00 | 0.09 | 0.08 | 56 | 1007.9 |
| 20260509195515 | 70 | 228 | 5.0 | 10.0 | 0.00 | 0.09 | 0.08 | 58 | 1008.1 |
| 20260509194516 | 69 | 205 | 3.0 | 10.0 | 0.00 | 0.09 | 0.08 | 58 | 1008.1 |
| 20260509193516 | 69 | 174 | 3.0 | 10.0 | 0.00 | 0.09 | 0.08 | 60 | 1008.3 |
| 20260509192517 | 68 | 241 | 3.0 | 10.0 | 0.00 | 0.09 | 0.08 | 62 | 1008.3 |
| 20260509191516 | 68 | 249 | 3.0 | 13.0 | 0.00 | 0.09 | 0.08 | 60 | 1008.4 |
| 20260509190536 | 68 | 199 | 2.0 | 12.0 | 0.00 | 0.09 | 0.08 | 63 | 1008.6 |
| 20260509185515 | 67 | 191 | 3.0 | 11.0 | 0.00 | 0.09 | 0.08 | 63 | 1008.6 |
| 20260509184516 | 67 | 203 | 3.0 | 10.0 | 0.00 | 0.09 | 0.08 | 65 | 1008.7 |
| 20260509183516 | 67 | 236 | 4.0 | 11.0 | 0.00 | 0.09 | 0.08 | 66 | 1008.7 |
| 20260509182535 | 66 | 241 | 4.0 | 13.0 | 0.00 | 0.09 | 0.08 | 68 | 1008.7 |
| 20260509181535 | 65 | 247 | 3.0 | 9.0 | 0.00 | 0.09 | 0.08 | 67 | 1008.7 |
| 20260509180515 | 65 | 232 | 3.0 | 8.0 | 0.00 | 0.09 | 0.08 | 68 | 1008.7 |
| 20260509175536 | 66 | 187 | 3.0 | 11.0 | 0.00 | 0.09 | 0.08 | 67 | 1008.7 |
| 20260509174515 | 65 | 247 | 3.0 | 13.0 | 0.00 | 0.09 | 0.08 | 70 | 1008.9 |
| 20260509173516 | 64 | 249 | 3.0 | 10.0 | 0.00 | 0.09 | 0.08 | 72 | 1008.9 |
| 20260509172516 | 64 | 224 | 3.0 | 10.0 | 0.00 | 0.09 | 0.08 | 72 | 1009.0 |
| 20260509171515 | 64 | 144 | 3.0 | 8.0 | 0.00 | 0.09 | 0.08 | 75 | 1009.0 |
| 20260509170515 | 62 | 254 | 3.0 | 9.0 | 0.00 | 0.09 | 0.08 | 76 | 1009.0 |
| 20260509165516 | 62 | 218 | 3.0 | 8.0 | 0.00 | 0.09 | 0.08 | 76 | 1009.1 |
| 20260509164516 | 62 | 255 | 2.0 | 8.0 | 0.00 | 0.09 | 0.08 | 79 | 1009.0 |
| 20260509163555 | 61 | 210 | 3.0 | 11.0 | 0.00 | 0.09 | 0.08 | 79 | 1008.9 |
| 20260509162515 | 60 | 237 | 4.0 | 10.0 | 0.00 | 0.09 | 0.08 | 81 | 1008.9 |
| 20260509161516 | 59 | 180 | 2.0 | 5.0 | 0.00 | 0.09 | 0.08 | 82 | 1008.8 |
| 20260509160515 | 59 | 222 | 2.0 | 8.0 | 0.00 | 0.09 | 0.08 | 82 | 1008.9 |
| 20260509155515 | 59 | 224 | 3.0 | 10.0 | 0.00 | 0.09 | 0.08 | 82 | 1008.7 |
| 20260509154515 | 59 | 232 | 2.0 | 11.0 | 0.00 | 0.09 | 0.08 | 82 | 1008.7 |
| 20260509153515 | 59 | 205 | 2.0 | 7.0 | 0.00 | 0.09 | 0.08 | 83 | 1008.6 |
| 20260509152516 | 59 | 228 | 1.0 | 8.0 | 0.00 | 0.09 | 0.08 | 82 | 1008.5 |
| 20260509151515 | 59 | 253 | 1.0 | 7.0 | 0.00 | 0.09 | 0.08 | 84 | 1008.5 |
| 20260509150516 | 58 | 241 | 2.0 | 6.0 | 0.00 | 0.09 | 0.08 | 84 | 1008.5 |
| 20260509145515 | 58 | 235 | 3.0 | 9.0 | 0.01 | 0.09 | 0.08 | 86 | 1008.4 |
| 20260509144515 | 57 | 230 | 1.0 | 6.0 | 0.01 | 0.09 | 0.08 | 87 | 1008.4 |
| 20260509143515 | 56 | 244 | 2.0 | 8.0 | 0.01 | 0.09 | 0.08 | 88 | 1008.4 |
| 20260509142515 | 55 | 266 | 2.0 | 6.0 | 0.01 | 0.09 | 0.08 | 89 | 1008.4 |
| 20260509141515 | 55 | 222 | 2.0 | 7.0 | 0.01 | 0.09 | 0.08 | 90 | 1008.4 |
| 20260509140535 | 55 | 221 | 1.0 | 7.0 | 0.01 | 0.09 | 0.08 | 90 | 1008.5 |
| 20260509135515 | 54 | 248 | 0.0 | 4.0 | 0.00 | 0.08 | 0.07 | 90 | 1008.5 |
| 20260509134515 | 54 | 229 | 1.0 | 4.0 | 0.00 | 0.08 | 0.07 | 90 | 1008.6 |
| 20260509133535 | 54 | 206 | 0.0 | 3.0 | 0.00 | 0.08 | 0.07 | 90 | 1008.7 |
| 20260509132536 | 54 | 238 | 1.0 | 2.0 | 0.00 | 0.08 | 0.07 | 90 | 1008.8 |
| 20260509131535 | 54 | 241 | 1.0 | 3.0 | 0.00 | 0.08 | 0.07 | 90 | 1008.8 |
| 20260509130515 | 53 | 199 | 0.0 | 3.0 | 0.00 | 0.08 | 0.07 | 90 | 1008.7 |
| 20260509125515 | 53 | 247 | 1.0 | 5.0 | 0.00 | 0.08 | 0.07 | 90 | 1008.8 |
| 20260509124515 | 53 | 209 | 0.0 | 4.0 | 0.01 | 0.08 | 0.07 | 90 | 1008.8 |
| 20260509123515 | 53 | 194 | 1.0 | 4.0 | 0.02 | 0.08 | 0.07 | 90 | 1008.7 |
| 20260509122515 | 53 | 217 | 0.0 | 4.0 | 0.02 | 0.08 | 0.07 | 90 | 1008.7 |
| 20260509121515 | 53 | 188 | 1.0 | 7.0 | 0.02 | 0.08 | 0.07 | 90 | 1008.9 |
| 20260509120535 | 52 | 224 | 1.0 | 5.0 | 0.03 | 0.08 | 0.07 | 90 | 1009.1 |
| 20260509115515 | 52 | 238 | 0.0 | 4.0 | 0.04 | 0.08 | 0.07 | 90 | 1009.0 |
| 20260509114535 | 52 | 136 | 0.0 | 2.0 | 0.03 | 0.07 | 0.06 | 90 | 1009.1 |
| 20260509113515 | 52 | 222 | 0.0 | 2.0 | 0.02 | 0.06 | 0.05 | 90 | 1009.1 |
| 20260509112516 | 52 | 201 | 0.0 | 1.0 | 0.02 | 0.06 | 0.05 | 90 | 1009.1 |
| 20260509111515 | 52 | 189 | 0.0 | 3.0 | 0.02 | 0.06 | 0.05 | 90 | 1009.0 |
| 20260509110535 | 52 | 245 | 1.0 | 6.0 | 0.01 | 0.05 | 0.04 | 90 | 1008.9 |
| 20260509105516 | 52 | 301 | 1.0 | 3.0 | 0.00 | 0.04 | 0.03 | 90 | 1008.7 |
| 20260509104515 | 52 | 0.0 | 0.0 | 0.01 | 0.04 | 0.03 | 90 | 1008.7 | |
| 20260509103515 | 52 | 0.0 | 2.0 | 0.01 | 0.04 | 0.03 | 90 | 1008.7 | |
| 20260509102535 | 52 | 237 | 0.0 | 4.0 | 0.01 | 0.04 | 0.03 | 90 | 1008.6 |
| 20260509101515 | 52 | 238 | 0.0 | 5.0 | 0.02 | 0.04 | 0.03 | 90 | 1008.6 |
| 20260509100515 | 52 | 240 | 0.0 | 4.0 | 0.02 | 0.04 | 0.03 | 90 | 1008.7 |
| 20260509095516 | 52 | 78 | 0.0 | 3.0 | 0.02 | 0.04 | 0.03 | 90 | 1008.8 |
| 20260509094515 | 52 | 174 | 0.0 | 2.0 | 0.01 | 0.03 | 0.02 | 90 | 1008.9 |
| 20260509093515 | 52 | 209 | 0.0 | 2.0 | 0.01 | 0.03 | 0.02 | 90 | 1009.0 |
| 20260509092515 | 52 | 200 | 0.0 | 3.0 | 0.01 | 0.03 | 0.02 | 90 | 1009.2 |
| 20260509091515 | 52 | 0.0 | 0.0 | 0.00 | 0.02 | 0.01 | 90 | 1009.2 | |
| 20260509090515 | 52 | 0.0 | 0.0 | 0.00 | 0.02 | 0.01 | 90 | 1009.3 | |
| 20260509085515 | 52 | 0.0 | 1.0 | 0.00 | 0.02 | 0.01 | 90 | 1009.3 | |
| 20260509084556 | 52 | 230 | 0.0 | 2.0 | 0.00 | 0.02 | 0.01 | 90 | 1009.4 |
| 20260509083535 | 52 | 234 | 0.0 | 3.0 | 0.00 | 0.02 | 0.01 | 90 | 1009.5 |
| 20260509082515 | 52 | 72 | 0.0 | 1.0 | 0.00 | 0.02 | 0.01 | 90 | 1009.5 |
| 20260509081515 | 52 | 279 | 0.0 | 1.0 | 0.00 | 0.02 | 0.01 | 90 | 1009.6 |
| 20260509080515 | 52 | 0.0 | 0.0 | 0.00 | 0.02 | 0.01 | 90 | 1009.6 | |
| 20260509075515 | 52 | 0.0 | 0.0 | 0.00 | 0.02 | 0.01 | 90 | 1009.7 | |
| 20260509074515 | 52 | 0.0 | 0.0 | 0.00 | 0.02 | 0.01 | 90 | 1009.8 | |
| 20260509073515 | 52 | 0.0 | 1.0 | 0.00 | 0.02 | 0.01 | 90 | 1009.8 | |
| 20260509072515 | 52 | 0.0 | 0.0 | 0.00 | 0.02 | 0.01 | 90 | 1009.8 | |
| 20260509071515 | 52 | 0.0 | 1.0 | 0.00 | 0.02 | 0.01 | 90 | 1009.7 | |
| 20260509070515 | 52 | 277 | 0.0 | 1.0 | 0.00 | 0.02 | 0.01 | 90 | 1009.8 |
| 20260509065535 | 52 | 0.0 | 0.0 | 0.00 | 0.02 | 0.01 | 90 | 1009.7 | |
| 20260509064515 | 52 | 277 | 0.0 | 1.0 | 0.00 | 0.02 | 0.01 | 90 | 1009.7 |
| 20260509063515 | 52 | 0.0 | 1.0 | 0.00 | 0.02 | 0.01 | 90 | 1009.8 | |
| 20260509062515 | 52 | 277 | 0.0 | 1.0 | 0.00 | 0.02 | 0.01 | 90 | 1009.9 |
| 20260509061515 | 52 | 0.0 | 1.0 | 0.00 | 0.02 | 0.01 | 90 | 1010.0 | |
| 20260509060515 | 52 | 0.0 | 1.0 | 0.00 | 0.02 | 0.01 | 90 | 1010.0 | |
| 20260509055515 | 52 | 0.0 | 0.0 | 0.00 | 0.02 | 0.01 | 90 | 1010.2 | |
| 20260509054515 | 52 | 0.0 | 0.0 | 0.00 | 0.02 | 0.01 | 90 | 1010.3 | |
| 20260509053515 | 52 | 0.0 | 0.0 | 0.01 | 0.02 | 0.01 | 90 | 1010.5 | |
| 20260509052515 | 52 | 0.0 | 0.0 | 0.01 | 0.02 | 0.01 | 90 | 1010.5 |